sensor_id;sensor_type;location;lat;lon;timestamp;P1;durP1;ratioP1;P2;durP2;ratioP2
5163;SDS011;2601;50.224;10.126;2022-11-20T00:00:51;28.20;;;17.00;;
5163;SDS011;2601;50.224;10.126;2022-11-20T00:03:17;29.13;;;17.77;;
5163;SDS011;2601;50.224;10.126;2022-11-20T00:05:43;28.63;;;17.30;;
5163;SDS011;2601;50.224;10.126;2022-11-20T00:08:09;31.13;;;18.10;;
5163;SDS011;2601;50.224;10.126;2022-11-20T00:10:38;31.53;;;18.13;;
5163;SDS011;2601;50.224;10.126;2022-11-20T00:13:06;30.53;;;18.53;;
5163;SDS011;2601;50.224;10.126;2022-11-20T00:15:32;36.30;;;19.17;;
5163;SDS011;2601;50.224;10.126;2022-11-20T00:17:58;29.97;;;17.77;;
5163;SDS011;2601;50.224;10.126;2022-11-20T00:20:27;28.10;;;18.57;;
5163;SDS011;2601;50.224;10.126;2022-11-20T00:22:55;31.83;;;17.90;;
5163;SDS011;2601;50.224;10.126;2022-11-20T00:25:21;30.27;;;17.00;;
5163;SDS011;2601;50.224;10.126;2022-11-20T00:27:47;32.40;;;18.00;;
5163;SDS011;2601;50.224;10.126;2022-11-20T00:30:12;26.47;;;16.30;;
5163;SDS011;2601;50.224;10.126;2022-11-20T00:32:38;31.13;;;18.13;;
5163;SDS011;2601;50.224;10.126;2022-11-20T00:35:04;33.27;;;17.53;;
5163;SDS011;2601;50.224;10.126;2022-11-20T00:37:30;30.30;;;18.13;;
5163;SDS011;2601;50.224;10.126;2022-11-20T00:39:56;28.57;;;16.80;;
5163;SDS011;2601;50.224;10.126;2022-11-20T00:42:21;26.27;;;16.87;;
5163;SDS011;2601;50.224;10.126;2022-11-20T00:44:47;25.93;;;16.47;;
5163;SDS011;2601;50.224;10.126;2022-11-20T00:47:13;27.97;;;18.10;;
5163;SDS011;2601;50.224;10.126;2022-11-20T00:49:38;27.13;;;17.00;;
5163;SDS011;2601;50.224;10.126;2022-11-20T00:52:04;31.33;;;18.20;;
5163;SDS011;2601;50.224;10.126;2022-11-20T00:54:30;29.43;;;16.70;;
5163;SDS011;2601;50.224;10.126;2022-11-20T00:56:55;29.00;;;17.30;;
5163;SDS011;2601;50.224;10.126;2022-11-20T00:59:21;29.90;;;17.87;;
5163;SDS011;2601;50.224;10.126;2022-11-20T01:01:47;35.70;;;18.17;;
5163;SDS011;2601;50.224;10.126;2022-11-20T01:04:13;28.33;;;16.43;;
5163;SDS011;2601;50.224;10.126;2022-11-20T01:06:39;25.77;;;16.50;;
5163;SDS011;2601;50.224;10.126;2022-11-20T01:09:10;31.40;;;17.27;;
5163;SDS011;2601;50.224;10.126;2022-11-20T01:11:38;26.50;;;16.53;;
5163;SDS011;2601;50.224;10.126;2022-11-20T01:14:12;33.63;;;16.47;;
5163;SDS011;2601;50.224;10.126;2022-11-20T01:16:41;31.37;;;16.60;;
5163;SDS011;2601;50.224;10.126;2022-11-20T01:19:11;33.03;;;16.67;;
5163;SDS011;2601;50.224;10.126;2022-11-20T01:21:39;28.00;;;15.80;;
5163;SDS011;2601;50.224;10.126;2022-11-20T01:24:07;33.33;;;19.93;;
5163;SDS011;2601;50.224;10.126;2022-11-20T01:26:36;29.13;;;16.67;;
5163;SDS011;2601;50.224;10.126;2022-11-20T01:29:03;31.60;;;17.00;;
5163;SDS011;2601;50.224;10.126;2022-11-20T01:31:31;31.27;;;19.03;;
5163;SDS011;2601;50.224;10.126;2022-11-20T01:33:59;29.07;;;17.90;;
5163;SDS011;2601;50.224;10.126;2022-11-20T01:36:28;32.00;;;18.97;;
5163;SDS011;2601;50.224;10.126;2022-11-20T01:38:56;28.80;;;16.13;;
5163;SDS011;2601;50.224;10.126;2022-11-20T01:41:24;29.90;;;17.60;;
5163;SDS011;2601;50.224;10.126;2022-11-20T01:44:11;28.20;;;16.90;;
5163;SDS011;2601;50.224;10.126;2022-11-20T01:46:40;26.13;;;15.73;;
5163;SDS011;2601;50.224;10.126;2022-11-20T01:49:20;32.57;;;18.87;;
5163;SDS011;2601;50.224;10.126;2022-11-20T01:51:56;30.53;;;18.20;;
5163;SDS011;2601;50.224;10.126;2022-11-20T01:54:28;30.77;;;17.27;;
5163;SDS011;2601;50.224;10.126;2022-11-20T01:56:59;33.67;;;18.70;;
5163;SDS011;2601;50.224;10.126;2022-11-20T01:59:26;26.50;;;15.70;;
5163;SDS011;2601;50.224;10.126;2022-11-20T02:01:54;29.40;;;17.17;;
5163;SDS011;2601;50.224;10.126;2022-11-20T02:04:20;29.73;;;18.10;;
5163;SDS011;2601;50.224;10.126;2022-11-20T02:06:48;36.07;;;18.33;;
5163;SDS011;2601;50.224;10.126;2022-11-20T02:09:26;31.90;;;18.37;;
5163;SDS011;2601;50.224;10.126;2022-11-20T02:11:52;32.53;;;17.83;;
5163;SDS011;2601;50.224;10.126;2022-11-20T02:14:18;27.67;;;16.03;;
5163;SDS011;2601;50.224;10.126;2022-11-20T02:16:45;33.10;;;18.50;;
5163;SDS011;2601;50.224;10.126;2022-11-20T02:19:16;29.97;;;18.40;;
5163;SDS011;2601;50.224;10.126;2022-11-20T02:24:23;30.20;;;19.23;;
5163;SDS011;2601;50.224;10.126;2022-11-20T02:26:50;29.27;;;16.90;;
5163;SDS011;2601;50.224;10.126;2022-11-20T02:29:51;30.90;;;17.50;;
5163;SDS011;2601;50.224;10.126;2022-11-20T02:32:33;30.43;;;15.93;;
5163;SDS011;2601;50.224;10.126;2022-11-20T02:37:56;26.13;;;15.53;;
5163;SDS011;2601;50.224;10.126;2022-11-20T02:40:24;30.07;;;17.70;;
5163;SDS011;2601;50.224;10.126;2022-11-20T02:42:53;29.77;;;16.30;;
5163;SDS011;2601;50.224;10.126;2022-11-20T02:45:20;29.20;;;17.80;;
5163;SDS011;2601;50.224;10.126;2022-11-20T02:47:47;29.50;;;18.10;;
5163;SDS011;2601;50.224;10.126;2022-11-20T02:50:13;29.83;;;17.23;;
5163;SDS011;2601;50.224;10.126;2022-11-20T02:52:39;31.13;;;17.50;;
5163;SDS011;2601;50.224;10.126;2022-11-20T02:55:05;31.90;;;18.73;;
5163;SDS011;2601;50.224;10.126;2022-11-20T02:57:31;32.00;;;16.90;;
5163;SDS011;2601;50.224;10.126;2022-11-20T02:59:57;26.47;;;15.57;;
5163;SDS011;2601;50.224;10.126;2022-11-20T03:02:22;36.03;;;18.67;;
5163;SDS011;2601;50.224;10.126;2022-11-20T03:04:48;27.80;;;16.80;;
5163;SDS011;2601;50.224;10.126;2022-11-20T03:07:14;33.37;;;16.60;;
5163;SDS011;2601;50.224;10.126;2022-11-20T03:09:39;27.77;;;17.33;;
5163;SDS011;2601;50.224;10.126;2022-11-20T03:12:05;25.90;;;16.73;;
5163;SDS011;2601;50.224;10.126;2022-11-20T03:14:31;28.90;;;19.03;;
5163;SDS011;2601;50.224;10.126;2022-11-20T03:16:57;28.07;;;17.73;;
5163;SDS011;2601;50.224;10.126;2022-11-20T03:19:23;32.93;;;18.50;;
5163;SDS011;2601;50.224;10.126;2022-11-20T03:21:48;24.60;;;17.00;;
5163;SDS011;2601;50.224;10.126;2022-11-20T03:24:14;33.00;;;17.97;;
5163;SDS011;2601;50.224;10.126;2022-11-20T03:26:40;26.07;;;15.53;;
5163;SDS011;2601;50.224;10.126;2022-11-20T03:29:06;31.47;;;17.90;;
5163;SDS011;2601;50.224;10.126;2022-11-20T03:31:33;29.90;;;17.77;;
5163;SDS011;2601;50.224;10.126;2022-11-20T03:34:07;29.10;;;18.23;;
5163;SDS011;2601;50.224;10.126;2022-11-20T03:36:34;27.03;;;16.10;;
5163;SDS011;2601;50.224;10.126;2022-11-20T03:39:00;27.40;;;17.17;;
5163;SDS011;2601;50.224;10.126;2022-11-20T03:41:26;30.07;;;17.60;;
5163;SDS011;2601;50.224;10.126;2022-11-20T03:43:54;31.40;;;18.20;;
5163;SDS011;2601;50.224;10.126;2022-11-20T03:46:25;30.10;;;16.97;;
5163;SDS011;2601;50.224;10.126;2022-11-20T03:48:52;33.97;;;18.50;;
5163;SDS011;2601;50.224;10.126;2022-11-20T03:51:22;25.67;;;16.27;;
5163;SDS011;2601;50.224;10.126;2022-11-20T03:53:50;28.90;;;17.57;;
5163;SDS011;2601;50.224;10.126;2022-11-20T03:56:18;27.23;;;17.10;;
5163;SDS011;2601;50.224;10.126;2022-11-20T03:58:45;28.83;;;18.20;;
5163;SDS011;2601;50.224;10.126;2022-11-20T04:03:44;25.67;;;15.60;;
5163;SDS011;2601;50.224;10.126;2022-11-20T04:06:20;28.63;;;16.13;;
5163;SDS011;2601;50.224;10.126;2022-11-20T04:08:47;29.70;;;15.90;;
5163;SDS011;2601;50.224;10.126;2022-11-20T04:11:21;30.50;;;16.57;;
5163;SDS011;2601;50.224;10.126;2022-11-20T04:13:49;30.20;;;16.20;;
5163;SDS011;2601;50.224;10.126;2022-11-20T04:16:24;30.87;;;17.60;;
5163;SDS011;2601;50.224;10.126;2022-11-20T04:18:54;25.80;;;16.93;;
5163;SDS011;2601;50.224;10.126;2022-11-20T04:21:21;30.67;;;17.80;;
5163;SDS011;2601;50.224;10.126;2022-11-20T04:23:48;32.63;;;17.17;;
5163;SDS011;2601;50.224;10.126;2022-11-20T04:26:14;29.97;;;17.10;;
5163;SDS011;2601;50.224;10.126;2022-11-20T04:28:40;28.57;;;16.90;;
5163;SDS011;2601;50.224;10.126;2022-11-20T04:31:07;27.13;;;16.70;;
5163;SDS011;2601;50.224;10.126;2022-11-20T04:33:34;32.90;;;17.73;;
5163;SDS011;2601;50.224;10.126;2022-11-20T04:36:02;29.63;;;16.83;;
5163;SDS011;2601;50.224;10.126;2022-11-20T04:38:31;34.70;;;19.17;;
5163;SDS011;2601;50.224;10.126;2022-11-20T04:41:00;28.70;;;17.43;;
5163;SDS011;2601;50.224;10.126;2022-11-20T04:43:28;29.10;;;17.63;;
5163;SDS011;2601;50.224;10.126;2022-11-20T04:45:54;31.57;;;18.60;;
5163;SDS011;2601;50.224;10.126;2022-11-20T04:48:20;29.50;;;16.67;;
5163;SDS011;2601;50.224;10.126;2022-11-20T04:50:47;29.83;;;17.63;;
5163;SDS011;2601;50.224;10.126;2022-11-20T04:53:13;27.60;;;17.17;;
5163;SDS011;2601;50.224;10.126;2022-11-20T04:55:39;29.10;;;17.50;;
5163;SDS011;2601;50.224;10.126;2022-11-20T04:58:04;28.87;;;17.40;;
5163;SDS011;2601;50.224;10.126;2022-11-20T05:00:31;32.00;;;18.13;;
5163;SDS011;2601;50.224;10.126;2022-11-20T05:02:57;32.30;;;17.97;;
5163;SDS011;2601;50.224;10.126;2022-11-20T05:05:22;29.90;;;17.47;;
5163;SDS011;2601;50.224;10.126;2022-11-20T05:07:49;26.57;;;15.67;;
5163;SDS011;2601;50.224;10.126;2022-11-20T05:10:15;32.63;;;18.90;;
5163;SDS011;2601;50.224;10.126;2022-11-20T05:12:41;33.00;;;18.60;;
5163;SDS011;2601;50.224;10.126;2022-11-20T05:15:07;28.57;;;17.13;;
5163;SDS011;2601;50.224;10.126;2022-11-20T05:17:33;31.20;;;17.63;;
5163;SDS011;2601;50.224;10.126;2022-11-20T05:19:58;26.10;;;15.93;;
5163;SDS011;2601;50.224;10.126;2022-11-20T05:22:24;32.03;;;18.10;;
5163;SDS011;2601;50.224;10.126;2022-11-20T05:24:50;28.80;;;16.47;;
5163;SDS011;2601;50.224;10.126;2022-11-20T05:27:23;30.00;;;18.63;;
5163;SDS011;2601;50.224;10.126;2022-11-20T05:29:48;28.50;;;16.80;;
5163;SDS011;2601;50.224;10.126;2022-11-20T05:32:14;27.37;;;15.97;;
5163;SDS011;2601;50.224;10.126;2022-11-20T05:34:40;25.03;;;16.50;;
5163;SDS011;2601;50.224;10.126;2022-11-20T05:37:06;27.30;;;15.80;;
5163;SDS011;2601;50.224;10.126;2022-11-20T05:39:31;32.23;;;17.23;;
5163;SDS011;2601;50.224;10.126;2022-11-20T05:41:57;29.00;;;17.40;;
5163;SDS011;2601;50.224;10.126;2022-11-20T05:44:41;31.57;;;17.70;;
5163;SDS011;2601;50.224;10.126;2022-11-20T05:47:07;31.37;;;18.07;;
5163;SDS011;2601;50.224;10.126;2022-11-20T05:49:32;33.73;;;19.00;;
5163;SDS011;2601;50.224;10.126;2022-11-20T05:51:58;29.27;;;17.40;;
5163;SDS011;2601;50.224;10.126;2022-11-20T05:54:24;34.67;;;18.87;;
5163;SDS011;2601;50.224;10.126;2022-11-20T05:56:49;29.07;;;18.83;;
5163;SDS011;2601;50.224;10.126;2022-11-20T05:59:15;34.00;;;19.37;;
5163;SDS011;2601;50.224;10.126;2022-11-20T06:01:41;29.37;;;17.43;;
5163;SDS011;2601;50.224;10.126;2022-11-20T06:04:07;31.97;;;18.20;;
5163;SDS011;2601;50.224;10.126;2022-11-20T06:06:32;32.40;;;18.20;;
5163;SDS011;2601;50.224;10.126;2022-11-20T06:08:58;29.57;;;18.40;;
5163;SDS011;2601;50.224;10.126;2022-11-20T06:11:24;27.70;;;17.53;;
5163;SDS011;2601;50.224;10.126;2022-11-20T06:13:50;33.33;;;19.70;;
5163;SDS011;2601;50.224;10.126;2022-11-20T06:16:17;28.93;;;17.83;;
5163;SDS011;2601;50.224;10.126;2022-11-20T06:18:44;30.60;;;18.13;;
5163;SDS011;2601;50.224;10.126;2022-11-20T06:21:11;30.27;;;18.30;;
5163;SDS011;2601;50.224;10.126;2022-11-20T06:23:42;31.23;;;18.33;;
5163;SDS011;2601;50.224;10.126;2022-11-20T06:26:10;32.37;;;19.07;;
5163;SDS011;2601;50.224;10.126;2022-11-20T06:28:37;26.23;;;16.67;;
5163;SDS011;2601;50.224;10.126;2022-11-20T06:31:04;34.30;;;17.93;;
5163;SDS011;2601;50.224;10.126;2022-11-20T06:33:31;33.33;;;18.50;;
5163;SDS011;2601;50.224;10.126;2022-11-20T06:35:57;29.70;;;18.13;;
5163;SDS011;2601;50.224;10.126;2022-11-20T06:38:25;28.43;;;17.77;;
5163;SDS011;2601;50.224;10.126;2022-11-20T06:40:52;33.53;;;18.50;;
5163;SDS011;2601;50.224;10.126;2022-11-20T06:43:18;33.23;;;18.40;;
5163;SDS011;2601;50.224;10.126;2022-11-20T06:45:43;32.20;;;16.67;;
5163;SDS011;2601;50.224;10.126;2022-11-20T06:48:09;32.70;;;17.07;;
5163;SDS011;2601;50.224;10.126;2022-11-20T06:50:38;33.17;;;19.27;;
5163;SDS011;2601;50.224;10.126;2022-11-20T06:53:04;30.90;;;18.27;;
5163;SDS011;2601;50.224;10.126;2022-11-20T06:55:30;31.63;;;18.17;;
5163;SDS011;2601;50.224;10.126;2022-11-20T06:57:56;26.93;;;17.20;;
5163;SDS011;2601;50.224;10.126;2022-11-20T07:00:22;32.00;;;17.13;;
5163;SDS011;2601;50.224;10.126;2022-11-20T07:02:48;29.80;;;18.83;;
5163;SDS011;2601;50.224;10.126;2022-11-20T07:05:15;34.43;;;19.40;;
5163;SDS011;2601;50.224;10.126;2022-11-20T07:07:41;32.67;;;19.90;;
5163;SDS011;2601;50.224;10.126;2022-11-20T07:10:07;33.70;;;18.97;;
5163;SDS011;2601;50.224;10.126;2022-11-20T07:12:33;35.70;;;20.40;;
5163;SDS011;2601;50.224;10.126;2022-11-20T07:14:59;42.63;;;23.17;;
5163;SDS011;2601;50.224;10.126;2022-11-20T07:17:24;73.30;;;38.53;;
5163;SDS011;2601;50.224;10.126;2022-11-20T07:19:50;76.43;;;36.90;;
5163;SDS011;2601;50.224;10.126;2022-11-20T07:22:16;42.07;;;22.03;;
5163;SDS011;2601;50.224;10.126;2022-11-20T07:24:42;28.23;;;18.00;;
5163;SDS011;2601;50.224;10.126;2022-11-20T07:27:07;31.27;;;19.60;;
5163;SDS011;2601;50.224;10.126;2022-11-20T07:29:33;34.70;;;18.23;;
5163;SDS011;2601;50.224;10.126;2022-11-20T07:31:59;25.93;;;15.83;;
5163;SDS011;2601;50.224;10.126;2022-11-20T07:34:25;31.67;;;18.80;;
5163;SDS011;2601;50.224;10.126;2022-11-20T07:36:50;29.27;;;18.07;;
5163;SDS011;2601;50.224;10.126;2022-11-20T07:39:16;31.47;;;18.90;;
5163;SDS011;2601;50.224;10.126;2022-11-20T07:41:42;28.60;;;17.77;;
5163;SDS011;2601;50.224;10.126;2022-11-20T07:44:07;32.10;;;18.57;;
5163;SDS011;2601;50.224;10.126;2022-11-20T07:46:33;105.33;;;40.40;;
5163;SDS011;2601;50.224;10.126;2022-11-20T07:48:59;34.87;;;20.07;;
5163;SDS011;2601;50.224;10.126;2022-11-20T07:51:25;39.87;;;22.03;;
5163;SDS011;2601;50.224;10.126;2022-11-20T07:53:54;40.40;;;23.90;;
5163;SDS011;2601;50.224;10.126;2022-11-20T07:56:19;41.03;;;22.20;;
5163;SDS011;2601;50.224;10.126;2022-11-20T07:58:46;38.30;;;21.80;;
5163;SDS011;2601;50.224;10.126;2022-11-20T08:01:12;38.20;;;22.60;;
5163;SDS011;2601;50.224;10.126;2022-11-20T08:03:40;36.23;;;20.60;;
5163;SDS011;2601;50.224;10.126;2022-11-20T08:06:05;44.50;;;23.80;;
5163;SDS011;2601;50.224;10.126;2022-11-20T08:08:32;36.60;;;19.80;;
5163;SDS011;2601;50.224;10.126;2022-11-20T08:10:57;36.83;;;21.53;;
5163;SDS011;2601;50.224;10.126;2022-11-20T08:13:42;38.87;;;22.33;;
5163;SDS011;2601;50.224;10.126;2022-11-20T08:16:27;34.07;;;20.07;;
5163;SDS011;2601;50.224;10.126;2022-11-20T08:18:53;32.10;;;18.67;;
5163;SDS011;2601;50.224;10.126;2022-11-20T08:21:19;32.50;;;18.70;;
5163;SDS011;2601;50.224;10.126;2022-11-20T08:23:44;35.83;;;19.37;;
5163;SDS011;2601;50.224;10.126;2022-11-20T08:26:10;32.03;;;19.60;;
5163;SDS011;2601;50.224;10.126;2022-11-20T08:28:37;33.20;;;20.00;;
5163;SDS011;2601;50.224;10.126;2022-11-20T08:31:03;35.13;;;19.90;;
5163;SDS011;2601;50.224;10.126;2022-11-20T08:33:30;38.73;;;20.47;;
5163;SDS011;2601;50.224;10.126;2022-11-20T08:36:01;41.50;;;22.23;;
5163;SDS011;2601;50.224;10.126;2022-11-20T08:38:28;37.80;;;21.03;;
5163;SDS011;2601;50.224;10.126;2022-11-20T08:40:58;35.63;;;21.20;;
5163;SDS011;2601;50.224;10.126;2022-11-20T08:43:43;41.83;;;21.40;;
5163;SDS011;2601;50.224;10.126;2022-11-20T08:46:09;57.40;;;36.17;;
5163;SDS011;2601;50.224;10.126;2022-11-20T08:48:36;50.47;;;29.40;;
5163;SDS011;2601;50.224;10.126;2022-11-20T08:51:01;47.33;;;26.43;;
5163;SDS011;2601;50.224;10.126;2022-11-20T08:53:27;50.13;;;24.87;;
5163;SDS011;2601;50.224;10.126;2022-11-20T08:55:53;50.53;;;24.97;;
5163;SDS011;2601;50.224;10.126;2022-11-20T08:58:19;70.20;;;35.10;;
5163;SDS011;2601;50.224;10.126;2022-11-20T09:00:44;36.53;;;20.97;;
5163;SDS011;2601;50.224;10.126;2022-11-20T09:03:10;49.77;;;28.10;;
5163;SDS011;2601;50.224;10.126;2022-11-20T09:05:38;49.10;;;26.27;;
5163;SDS011;2601;50.224;10.126;2022-11-20T09:08:04;98.53;;;45.00;;
5163;SDS011;2601;50.224;10.126;2022-11-20T09:10:30;61.37;;;33.53;;
5163;SDS011;2601;50.224;10.126;2022-11-20T09:12:55;59.87;;;29.67;;
5163;SDS011;2601;50.224;10.126;2022-11-20T09:15:21;56.23;;;28.43;;
5163;SDS011;2601;50.224;10.126;2022-11-20T09:17:55;157.20;;;72.80;;
5163;SDS011;2601;50.224;10.126;2022-11-20T09:20:23;114.00;;;53.20;;
5163;SDS011;2601;50.224;10.126;2022-11-20T09:22:49;54.33;;;28.70;;
5163;SDS011;2601;50.224;10.126;2022-11-20T09:25:15;52.90;;;27.00;;
5163;SDS011;2601;50.224;10.126;2022-11-20T09:27:41;56.80;;;27.10;;
5163;SDS011;2601;50.224;10.126;2022-11-20T09:30:09;44.53;;;23.30;;
5163;SDS011;2601;50.224;10.126;2022-11-20T09:32:35;49.30;;;25.67;;
5163;SDS011;2601;50.224;10.126;2022-11-20T09:35:04;60.57;;;29.07;;
5163;SDS011;2601;50.224;10.126;2022-11-20T09:37:30;91.60;;;40.50;;
5163;SDS011;2601;50.224;10.126;2022-11-20T09:39:56;71.87;;;33.93;;
5163;SDS011;2601;50.224;10.126;2022-11-20T09:42:37;60.73;;;28.67;;
5163;SDS011;2601;50.224;10.126;2022-11-20T09:45:30;66.67;;;32.53;;
5163;SDS011;2601;50.224;10.126;2022-11-20T09:48:24;64.03;;;30.23;;
5163;SDS011;2601;50.224;10.126;2022-11-20T09:56:50;102.73;;;46.80;;
5163;SDS011;2601;50.224;10.126;2022-11-20T10:02:32;90.63;;;44.37;;
5163;SDS011;2601;50.224;10.126;2022-11-20T10:07:59;66.90;;;33.90;;
5163;SDS011;2601;50.224;10.126;2022-11-20T10:10:41;51.63;;;26.50;;
5163;SDS011;2601;50.224;10.126;2022-11-20T10:14:13;56.77;;;28.07;;
5163;SDS011;2601;50.224;10.126;2022-11-20T10:27:10;49.90;;;24.63;;
5163;SDS011;2601;50.224;10.126;2022-11-20T10:29:40;53.07;;;25.83;;
5163;SDS011;2601;50.224;10.126;2022-11-20T10:32:16;58.50;;;26.67;;
5163;SDS011;2601;50.224;10.126;2022-11-20T10:37:33;61.17;;;29.13;;
5163;SDS011;2601;50.224;10.126;2022-11-20T10:48:33;60.43;;;29.13;;
5163;SDS011;2601;50.224;10.126;2022-11-20T10:51:25;55.60;;;28.03;;
5163;SDS011;2601;50.224;10.126;2022-11-20T10:56:48;63.43;;;30.07;;
5163;SDS011;2601;50.224;10.126;2022-11-20T11:02:31;71.77;;;30.77;;
5163;SDS011;2601;50.224;10.126;2022-11-20T11:05:08;58.87;;;32.07;;
5163;SDS011;2601;50.224;10.126;2022-11-20T11:07:45;55.20;;;28.33;;
5163;SDS011;2601;50.224;10.126;2022-11-20T11:10:15;49.40;;;25.80;;
5163;SDS011;2601;50.224;10.126;2022-11-20T11:12:47;54.13;;;27.40;;
5163;SDS011;2601;50.224;10.126;2022-11-20T11:15:35;58.20;;;26.73;;
5163;SDS011;2601;50.224;10.126;2022-11-20T11:18:01;56.30;;;26.73;;
5163;SDS011;2601;50.224;10.126;2022-11-20T11:20:27;58.23;;;28.60;;
5163;SDS011;2601;50.224;10.126;2022-11-20T11:22:54;52.10;;;27.83;;
5163;SDS011;2601;50.224;10.126;2022-11-20T11:27:50;58.13;;;26.83;;
5163;SDS011;2601;50.224;10.126;2022-11-20T11:30:18;50.57;;;28.13;;
5163;SDS011;2601;50.224;10.126;2022-11-20T11:32:45;55.70;;;28.30;;
5163;SDS011;2601;50.224;10.126;2022-11-20T11:35:32;48.60;;;26.50;;
5163;SDS011;2601;50.224;10.126;2022-11-20T11:38:05;50.03;;;28.10;;
5163;SDS011;2601;50.224;10.126;2022-11-20T11:40:33;47.07;;;27.17;;
5163;SDS011;2601;50.224;10.126;2022-11-20T11:43:02;52.10;;;27.30;;
5163;SDS011;2601;50.224;10.126;2022-11-20T11:45:54;47.23;;;25.07;;
5163;SDS011;2601;50.224;10.126;2022-11-20T11:48:20;45.80;;;24.10;;
5163;SDS011;2601;50.224;10.126;2022-11-20T11:50:49;42.23;;;24.43;;
5163;SDS011;2601;50.224;10.126;2022-11-20T11:53:17;40.73;;;23.63;;
5163;SDS011;2601;50.224;10.126;2022-11-20T12:06:45;48.40;;;27.00;;
5163;SDS011;2601;50.224;10.126;2022-11-20T12:09:16;53.30;;;32.73;;
5163;SDS011;2601;50.224;10.126;2022-11-20T12:11:49;42.93;;;23.63;;
5163;SDS011;2601;50.224;10.126;2022-11-20T12:16:58;50.50;;;28.37;;
5163;SDS011;2601;50.224;10.126;2022-11-20T12:19:25;63.70;;;30.37;;
5163;SDS011;2601;50.224;10.126;2022-11-20T12:22:19;46.07;;;23.63;;
5163;SDS011;2601;50.224;10.126;2022-11-20T12:25:00;50.63;;;30.30;;
5163;SDS011;2601;50.224;10.126;2022-11-20T12:27:54;43.80;;;24.33;;
5163;SDS011;2601;50.224;10.126;2022-11-20T12:30:32;35.83;;;21.80;;
5163;SDS011;2601;50.224;10.126;2022-11-20T12:38:51;41.77;;;21.47;;
5163;SDS011;2601;50.224;10.126;2022-11-20T12:56:03;37.33;;;19.70;;
5163;SDS011;2601;50.224;10.126;2022-11-20T12:58:45;33.07;;;17.97;;
5163;SDS011;2601;50.224;10.126;2022-11-20T13:07:01;32.40;;;17.87;;
5163;SDS011;2601;50.224;10.126;2022-11-20T13:09:33;34.30;;;19.37;;
5163;SDS011;2601;50.224;10.126;2022-11-20T13:12:14;36.77;;;18.60;;
5163;SDS011;2601;50.224;10.126;2022-11-20T13:20:21;34.20;;;19.00;;
5163;SDS011;2601;50.224;10.126;2022-11-20T13:22:54;32.73;;;17.30;;
5163;SDS011;2601;50.224;10.126;2022-11-20T13:25:43;43.47;;;19.90;;
5163;SDS011;2601;50.224;10.126;2022-11-20T13:30:36;33.77;;;16.97;;
5163;SDS011;2601;50.224;10.126;2022-11-20T13:33:25;36.00;;;18.60;;
5163;SDS011;2601;50.224;10.126;2022-11-20T13:35:56;30.97;;;18.20;;
5163;SDS011;2601;50.224;10.126;2022-11-20T13:38:22;43.40;;;20.00;;
5163;SDS011;2601;50.224;10.126;2022-11-20T13:40:52;37.97;;;20.63;;
5163;SDS011;2601;50.224;10.126;2022-11-20T13:45:54;27.43;;;14.67;;
5163;SDS011;2601;50.224;10.126;2022-11-20T13:48:21;27.20;;;15.00;;
5163;SDS011;2601;50.224;10.126;2022-11-20T13:50:54;32.17;;;17.60;;
5163;SDS011;2601;50.224;10.126;2022-11-20T13:53:48;32.37;;;16.90;;
5163;SDS011;2601;50.224;10.126;2022-11-20T13:56:24;31.30;;;16.60;;
5163;SDS011;2601;50.224;10.126;2022-11-20T14:02:10;28.60;;;16.93;;
5163;SDS011;2601;50.224;10.126;2022-11-20T14:04:38;32.97;;;17.30;;
5163;SDS011;2601;50.224;10.126;2022-11-20T14:07:08;33.50;;;17.33;;
5163;SDS011;2601;50.224;10.126;2022-11-20T14:09:34;30.03;;;18.50;;
5163;SDS011;2601;50.224;10.126;2022-11-20T14:12:01;31.40;;;18.50;;
5163;SDS011;2601;50.224;10.126;2022-11-20T14:14:28;31.17;;;17.53;;
5163;SDS011;2601;50.224;10.126;2022-11-20T14:17:08;30.70;;;17.83;;
5163;SDS011;2601;50.224;10.126;2022-11-20T14:19:41;31.40;;;17.43;;
5163;SDS011;2601;50.224;10.126;2022-11-20T14:22:16;37.80;;;17.63;;
5163;SDS011;2601;50.224;10.126;2022-11-20T14:24:46;30.03;;;17.37;;
5163;SDS011;2601;50.224;10.126;2022-11-20T14:27:16;34.57;;;18.00;;
5163;SDS011;2601;50.224;10.126;2022-11-20T14:29:44;36.67;;;18.77;;
5163;SDS011;2601;50.224;10.126;2022-11-20T14:32:14;33.50;;;18.27;;
5163;SDS011;2601;50.224;10.126;2022-11-20T14:34:44;35.80;;;17.23;;
5163;SDS011;2601;50.224;10.126;2022-11-20T14:37:17;34.63;;;18.50;;
5163;SDS011;2601;50.224;10.126;2022-11-20T14:39:51;36.50;;;19.80;;
5163;SDS011;2601;50.224;10.126;2022-11-20T14:42:19;34.70;;;19.50;;
5163;SDS011;2601;50.224;10.126;2022-11-20T14:44:49;33.87;;;19.07;;
5163;SDS011;2601;50.224;10.126;2022-11-20T14:47:18;46.20;;;24.40;;
5163;SDS011;2601;50.224;10.126;2022-11-20T14:49:47;33.40;;;18.27;;
5163;SDS011;2601;50.224;10.126;2022-11-20T14:52:18;32.90;;;17.83;;
5163;SDS011;2601;50.224;10.126;2022-11-20T14:54:49;30.03;;;18.53;;
5163;SDS011;2601;50.224;10.126;2022-11-20T14:57:20;38.80;;;20.67;;
5163;SDS011;2601;50.224;10.126;2022-11-20T15:02:43;33.17;;;16.30;;
5163;SDS011;2601;50.224;10.126;2022-11-20T15:05:10;34.70;;;18.07;;
5163;SDS011;2601;50.224;10.126;2022-11-20T15:07:37;29.57;;;15.07;;
5163;SDS011;2601;50.224;10.126;2022-11-20T15:10:07;32.00;;;16.40;;
5163;SDS011;2601;50.224;10.126;2022-11-20T15:15:15;40.60;;;20.53;;
5163;SDS011;2601;50.224;10.126;2022-11-20T15:17:45;37.57;;;19.90;;
5163;SDS011;2601;50.224;10.126;2022-11-20T15:20:13;32.97;;;20.17;;
5163;SDS011;2601;50.224;10.126;2022-11-20T15:22:40;29.33;;;17.63;;
5163;SDS011;2601;50.224;10.126;2022-11-20T15:25:13;40.63;;;20.93;;
5163;SDS011;2601;50.224;10.126;2022-11-20T15:27:39;35.27;;;18.87;;
5163;SDS011;2601;50.224;10.126;2022-11-20T15:30:13;37.63;;;18.80;;
5163;SDS011;2601;50.224;10.126;2022-11-20T15:32:42;39.70;;;20.60;;
5163;SDS011;2601;50.224;10.126;2022-11-20T15:35:08;30.00;;;16.43;;
5163;SDS011;2601;50.224;10.126;2022-11-20T15:37:35;29.97;;;17.07;;
5163;SDS011;2601;50.224;10.126;2022-11-20T15:40:01;31.60;;;16.73;;
5163;SDS011;2601;50.224;10.126;2022-11-20T15:42:27;29.57;;;16.87;;
5163;SDS011;2601;50.224;10.126;2022-11-20T15:44:53;33.00;;;18.63;;
5163;SDS011;2601;50.224;10.126;2022-11-20T15:47:19;35.70;;;18.40;;
5163;SDS011;2601;50.224;10.126;2022-11-20T15:49:49;33.53;;;18.83;;
5163;SDS011;2601;50.224;10.126;2022-11-20T15:52:15;37.27;;;20.90;;
5163;SDS011;2601;50.224;10.126;2022-11-20T15:54:41;49.70;;;27.17;;
5163;SDS011;2601;50.224;10.126;2022-11-20T15:57:07;44.20;;;23.37;;
5163;SDS011;2601;50.224;10.126;2022-11-20T15:59:33;45.83;;;24.37;;
5163;SDS011;2601;50.224;10.126;2022-11-20T16:01:59;60.90;;;28.63;;
5163;SDS011;2601;50.224;10.126;2022-11-20T16:04:25;50.50;;;22.67;;
5163;SDS011;2601;50.224;10.126;2022-11-20T16:06:50;48.37;;;24.27;;
5163;SDS011;2601;50.224;10.126;2022-11-20T16:09:16;52.50;;;24.83;;
5163;SDS011;2601;50.224;10.126;2022-11-20T16:11:42;51.03;;;24.87;;
5163;SDS011;2601;50.224;10.126;2022-11-20T16:14:09;33.73;;;18.13;;
5163;SDS011;2601;50.224;10.126;2022-11-20T16:16:54;30.30;;;14.83;;
5163;SDS011;2601;50.224;10.126;2022-11-20T16:19:20;32.10;;;17.67;;
5163;SDS011;2601;50.224;10.126;2022-11-20T16:21:45;39.90;;;22.10;;
5163;SDS011;2601;50.224;10.126;2022-11-20T16:24:12;42.93;;;24.37;;
5163;SDS011;2601;50.224;10.126;2022-11-20T16:26:39;41.23;;;23.27;;
5163;SDS011;2601;50.224;10.126;2022-11-20T16:29:05;42.40;;;23.00;;
5163;SDS011;2601;50.224;10.126;2022-11-20T16:31:32;41.87;;;21.77;;
5163;SDS011;2601;50.224;10.126;2022-11-20T16:33:59;37.40;;;20.77;;